Time;durP1;ratioP1;P1;durP2;ratioP2;P2;SDS_P1;SDS_P2;PMS_P1;PMS_P2;Temp;Humidity;BMP_temperature;BMP_pressure;BME280_temperature;BME280_humidity;BME280_pressure;Samples;Min_cycle;Max_cycle;Signal;HPM_P1;HPM_P2
2023/05/28 00:01:08;;;;;;;5.27;3.70;;;16.50;99.90;;;16.70;69.80;94880.97;5077750;28;20829;-56
2023/05/28 00:03:36;;;;;;;4.33;4.03;;;16.40;99.90;;;16.66;69.87;94876.00;5078006;28;20478;-64
2023/05/28 00:06:04;;;;;;;5.07;4.30;;;16.40;99.90;;;16.63;69.84;94889.66;5077636;28;20613;-54
2023/05/28 00:08:31;;;;;;;6.13;3.80;;;16.40;99.90;;;16.62;70.16;94885.34;5080777;28;20573;-62
2023/05/28 00:11:00;;;;;;;5.17;4.43;;;16.40;99.90;;;16.61;69.80;94889.00;5078220;28;20446;-62
2023/05/28 00:13:28;;;;;;;5.03;3.53;;;16.40;99.90;;;16.59;70.21;94891.03;5078120;28;20473;-63
2023/05/28 00:15:56;;;;;;;6.27;3.80;;;16.40;99.90;;;16.58;70.14;94888.53;5077254;28;20467;-63
2023/05/28 00:18:24;;;;;;;3.43;2.93;;;16.30;99.90;;;16.55;70.42;94894.22;5080816;28;20477;-62
2023/05/28 00:20:52;;;;;;;13.47;3.50;;;16.30;99.90;;;16.55;70.01;94891.56;5076603;28;20462;-57
2023/05/28 00:23:19;;;;;;;4.40;3.80;;;16.30;99.90;;;16.53;70.22;94891.72;5078919;28;20458;-65
2023/05/28 00:25:46;;;;;;;3.37;3.17;;;16.30;99.90;;;16.53;70.30;94893.53;5075960;28;20518;-63
2023/05/28 00:28:13;;;;;;;4.20;3.93;;;16.30;99.90;;;16.51;70.19;94883.09;5076519;28;20458;-57
2023/05/28 00:30:41;;;;;;;3.90;3.60;;;16.30;99.90;;;16.52;70.11;94886.59;5081929;28;20458;-55
2023/05/28 00:33:08;;;;;;;3.50;3.30;;;16.30;99.90;;;16.50;69.79;94876.16;5080450;28;20473;-56
2023/05/28 00:35:37;;;;;;;11.50;5.33;;;16.30;99.90;;;16.48;69.77;94873.66;5081758;28;20458;-54
2023/05/28 00:38:04;;;;;;;4.67;4.00;;;16.30;99.90;;;16.49;70.11;94870.00;5080432;28;20516;-63
2023/05/28 00:40:31;;;;;;;4.30;3.90;;;16.20;99.90;;;16.48;70.08;94867.50;5081728;28;20471;-55
2023/05/28 00:42:58;;;;;;;5.40;3.77;;;16.30;99.90;;;16.49;69.80;94861.22;5079499;28;20457;-57
2023/05/28 00:45:26;;;;;;;4.97;3.63;;;16.20;99.90;;;16.48;70.28;94868.34;5078108;28;21033;-55
2023/05/28 00:47:53;;;;;;;5.47;3.20;;;16.20;99.90;;;16.49;70.03;94858.56;5079623;28;20465;-63
2023/05/28 00:50:21;;;;;;;7.93;3.50;;;16.30;99.90;;;16.46;70.11;94859.72;5079376;28;20893;-61
2023/05/28 00:52:51;;;;;;;3.73;3.53;;;16.20;99.90;;;16.47;70.25;94857.91;5082837;28;20482;-63
2023/05/28 00:55:18;;;;;;;17.40;3.77;;;16.20;99.90;;;16.47;69.98;94860.56;5079912;28;20589;-56
2023/05/28 00:57:46;;;;;;;3.50;3.20;;;16.20;99.90;;;16.45;69.92;94851.94;5073613;28;20470;-63
2023/05/28 01:00:16;;;;;;;4.83;3.70;;;16.20;99.90;;;16.45;69.77;94874.03;5078669;28;20481;-54
2023/05/28 01:02:43;;;;;;;4.73;3.90;;;16.20;99.90;;;16.46;70.11;94861.56;5080795;28;20450;-56
2023/05/28 01:05:10;;;;;;;7.97;3.30;;;16.20;99.90;;;16.44;70.11;94875.00;5082159;28;20516;-63
2023/05/28 01:07:37;;;;;;;11.50;3.40;;;16.20;99.90;;;16.45;69.89;94866.06;5076468;28;20466;-62
2023/05/28 01:10:07;;;;;;;6.30;2.87;;;16.20;99.90;;;16.45;70.02;94858.09;5076703;28;20478;-64
2023/05/28 01:12:36;;;;;;;4.70;3.90;;;16.20;99.90;;;16.46;70.09;94864.22;5078584;28;20447;-54
2023/05/28 01:15:04;;;;;;;2.80;2.60;;;16.20;99.90;;;16.46;70.17;94854.41;5078865;28;20475;-54
2023/05/28 01:17:31;;;;;;;4.00;2.97;;;16.20;99.90;;;16.47;70.00;94855.25;5079530;28;20439;-63
2023/05/28 01:20:05;;;;;;;3.37;3.17;;;16.20;99.90;;;16.47;69.59;94848.13;5079610;28;20466;-54
2023/05/28 01:22:33;;;;;;;3.37;3.07;;;16.20;99.90;;;16.48;69.94;94846.28;5079678;28;20482;-57
2023/05/28 01:25:02;;;;;;;4.70;3.10;;;16.20;99.90;;;16.46;69.78;94842.97;5077624;28;20942;-61
2023/05/28 01:27:29;;;;;;;4.83;3.73;;;16.20;99.90;;;16.48;69.67;94846.28;5076996;28;20474;-63
2023/05/28 01:29:56;;;;;;;4.80;3.47;;;16.20;99.90;;;16.48;69.59;94840.97;5080519;28;20477;-63
2023/05/28 01:32:24;;;;;;;4.03;3.17;;;16.30;99.90;;;16.48;69.84;94836.50;5076665;28;20450;-56
2023/05/28 01:34:51;;;;;;;9.77;3.60;;;16.30;99.90;;;16.48;70.02;94836.50;5075084;28;20922;-54
2023/05/28 01:37:19;;;;;;;3.60;3.40;;;16.30;99.90;;;16.48;69.58;94831.19;5078274;28;20458;-56
2023/05/28 01:39:46;;;;;;;3.47;3.17;;;16.30;99.90;;;16.48;70.05;94833.84;5072999;28;20491;-55
2023/05/28 01:42:15;;;;;;;3.70;3.50;;;16.30;99.90;;;16.48;70.10;94839.16;5076671;28;20454;-57
2023/05/28 01:44:42;;;;;;;3.20;3.00;;;16.30;99.90;;;16.50;70.00;94838.97;5077654;28;21009;-55
2023/05/28 01:47:10;;;;;;;3.73;3.40;;;16.30;99.90;;;16.49;69.95;94838.13;5076583;28;20490;-65
2023/05/28 01:49:38;;;;;;;4.30;3.40;;;16.30;99.90;;;16.48;69.88;94836.50;5080505;28;21057;-69
2023/05/28 01:52:06;;;;;;;3.63;2.93;;;16.30;99.90;;;16.50;69.68;94833.66;5076996;28;20520;-56
2023/05/28 01:54:33;;;;;;;4.03;3.67;;;16.30;99.90;;;16.51;69.67;94834.47;5076072;28;20509;-63
2023/05/28 01:57:01;;;;;;;4.00;3.80;;;16.30;99.90;;;16.53;70.04;94835.13;5081359;28;20974;-55
2023/05/28 01:59:29;;;;;;;4.80;3.40;;;16.20;99.90;;;16.53;69.85;94837.78;5079741;28;20469;-63
2023/05/28 02:01:57;;;;;;;3.50;3.20;;;16.30;99.90;;;16.54;69.66;94834.13;5078030;28;20454;-64
2023/05/28 02:04:24;;;;;;;3.20;2.90;;;16.30;99.90;;;16.55;69.86;94830.47;5079221;28;21078;-64
2023/05/28 02:06:51;;;;;;;4.23;3.57;;;16.30;99.90;;;16.57;69.96;94828.47;5077423;28;20926;-54
2023/05/28 02:09:19;;;;;;;5.80;3.23;;;16.30;99.90;;;16.58;69.69;94832.78;5075794;28;20532;-62
2023/05/28 02:11:46;;;;;;;3.33;3.10;;;16.30;99.90;;;16.58;69.92;94840.75;5078186;28;20462;-64
2023/05/28 02:14:14;;;;;;;3.67;3.40;;;16.30;99.90;;;16.59;69.75;94837.06;5077662;28;20477;-55
2023/05/28 02:16:43;;;;;;;3.03;2.70;;;16.30;99.90;;;16.61;69.77;94838.56;5077479;28;20464;-55
2023/05/28 02:19:11;;;;;;;2.97;2.67;;;16.40;99.90;;;16.61;70.00;94830.59;5075444;28;20481;-55
2023/05/28 02:21:38;;;;;;;3.70;3.50;;;16.30;99.90;;;16.62;69.90;94831.41;5078658;28;20463;-55
2023/05/28 02:24:06;;;;;;;3.93;3.63;;;16.40;99.90;;;16.62;69.57;94836.72;5078280;28;20478;-62
2023/05/28 02:26:33;;;;;;;3.50;3.20;;;16.40;99.90;;;16.62;69.75;94832.25;5078293;28;20490;-63
2023/05/28 02:29:00;;;;;;;3.60;3.40;;;16.40;99.90;;;16.63;69.91;94841.84;5077437;28;20478;-57
2023/05/28 02:31:28;;;;;;;6.17;3.90;;;16.40;99.90;;;16.64;69.83;94843.50;5073672;28;20480;-64
2023/05/28 02:33:57;;;;;;;9.03;4.40;;;16.40;99.90;;;16.64;69.90;94840.84;5075498;28;20481;-64
2023/05/28 02:36:24;;;;;;;3.83;3.53;;;16.40;99.90;;;16.65;69.96;94839.00;5076672;28;20995;-62
2023/05/28 02:38:51;;;;;;;3.73;3.40;;;16.40;99.90;;;16.66;69.79;94841.50;5075596;28;20478;-55
2023/05/28 02:41:18;;;;;;;6.50;4.03;;;16.40;99.90;;;16.69;69.85;94847.47;5074341;28;20457;-63
2023/05/28 02:43:45;;;;;;;3.57;3.37;;;16.40;99.90;;;16.69;69.58;94840.31;5073908;28;20474;-55
2023/05/28 02:46:13;;;;;;;4.30;3.90;;;16.50;99.90;;;16.69;70.01;94840.31;5081661;28;20959;-56
2023/05/28 02:48:40;;;;;;;3.90;3.60;;;16.50;99.90;;;16.69;69.68;94837.66;5077499;28;20570;-64
2023/05/28 02:51:10;;;;;;;4.50;3.30;;;16.50;99.90;;;16.70;69.91;94836.66;5076357;28;20467;-62
2023/05/28 02:53:37;;;;;;;4.60;3.17;;;16.50;99.90;;;16.70;69.80;94839.31;5073394;28;20486;-56
2023/05/28 02:56:04;;;;;;;3.37;3.17;;;16.50;99.90;;;16.71;69.97;94834.81;5073695;28;20455;-55
2023/05/28 02:58:32;;;;;;;3.60;3.40;;;16.50;99.90;;;16.72;69.96;94839.97;5077297;28;20473;-63
2023/05/28 03:00:59;;;;;;;3.93;3.63;;;16.50;99.90;;;16.72;70.10;94847.94;5076728;28;20451;-54
2023/05/28 03:03:26;;;;;;;3.77;3.50;;;16.50;99.90;;;16.74;70.20;94839.78;5076551;28;20483;-64
2023/05/28 03:05:54;;;;;;;4.80;3.50;;;16.50;99.90;;;16.74;69.98;94851.22;5073453;28;20523;-64
2023/05/28 03:08:22;;;;;;;5.80;3.50;;;16.50;99.90;;;16.75;70.13;94838.78;5078043;28;20474;-62
2023/05/28 03:10:50;;;;;;;3.77;3.50;;;16.50;99.90;;;16.76;69.89;94843.06;5074755;28;20454;-64
2023/05/28 03:13:17;;;;;;;3.33;3.13;;;16.50;99.90;;;16.76;69.89;94837.75;5079442;28;20450;-55
2023/05/28 03:15:44;;;;;;;3.67;3.47;;;16.50;99.90;;;16.77;69.79;94839.44;5073906;28;20450;-55
2023/05/28 03:18:11;;;;;;;4.70;4.20;;;16.50;99.90;;;16.78;70.33;94844.56;5080295;28;21011;-63
2023/05/28 03:20:38;;;;;;;4.00;3.70;;;16.50;99.90;;;16.79;69.88;94846.22;5076167;28;20448;-54
2023/05/28 03:23:06;;;;;;;4.00;3.70;;;16.60;99.90;;;16.80;69.95;94845.19;5079658;28;20503;-63
2023/05/28 03:25:34;;;;;;;4.00;3.70;;;16.60;99.90;;;16.81;69.85;94851.34;5073762;28;20455;-54
2023/05/28 03:28:01;;;;;;;4.17;3.80;;;16.60;99.90;;;16.80;70.19;94849.69;5078520;28;20811;-55
2023/05/28 03:30:29;;;;;;;6.97;3.43;;;16.60;99.90;;;16.80;70.20;94847.84;5075614;28;20481;-55
2023/05/28 03:32:56;;;;;;;3.77;3.00;;;16.60;99.90;;;16.81;70.05;94846.84;5080004;28;20442;-54
2023/05/28 03:35:23;;;;;;;4.47;3.30;;;16.60;99.90;;;16.82;69.94;94845.88;5076685;28;20489;-63
2023/05/28 03:37:50;;;;;;;5.60;4.13;;;16.60;99.90;;;16.82;70.21;94851.19;5076059;28;20463;-63
2023/05/28 03:40:18;;;;;;;4.20;3.80;;;16.60;99.90;;;16.84;69.83;94848.34;5076832;28;20568;-64
2023/05/28 03:42:47;;;;;;;4.30;4.00;;;16.60;99.90;;;16.84;70.21;94843.84;5075165;28;20553;-63
2023/05/28 03:45:15;;;;;;;4.00;3.53;;;16.60;99.90;;;16.84;70.37;94841.19;5079374;28;20576;-63
2023/05/28 03:47:42;;;;;;;4.07;3.77;;;16.60;99.90;;;16.85;69.88;94845.50;5074184;28;20597;-56
2023/05/28 03:50:10;;;;;;;4.37;3.97;;;16.60;99.90;;;16.87;70.07;94844.50;5072425;28;20878;-54
2023/05/28 03:52:38;;;;;;;13.37;4.10;;;16.60;99.90;;;16.90;70.23;94841.50;5078247;28;20891;-64
2023/05/28 03:55:06;;;;;;;4.70;4.13;;;16.60;99.90;;;16.90;70.37;94845.00;5075416;28;20474;-63
2023/05/28 03:57:33;;;;;;;3.83;3.63;;;16.70;99.90;;;16.92;70.11;94842.97;5073530;28;20480;-54
2023/05/28 04:00:06;;;;;;;4.17;3.87;;;16.70;99.90;;;16.95;70.47;94852.44;5069691;28;20927;-55
2023/05/28 04:02:34;;;;;;;3.93;3.63;;;16.70;99.90;;;16.95;70.17;94853.25;5073035;28;20585;-62
2023/05/28 04:05:01;;;;;;;4.40;4.00;;;16.70;99.90;;;16.97;69.78;94851.22;5071255;28;20475;-57
2023/05/28 04:07:29;;;;;;;5.33;3.80;;;16.70;99.90;;;16.99;70.31;94846.59;5078042;28;20941;-55
2023/05/28 04:09:56;;;;;;;4.43;4.03;;;16.80;99.90;;;17.01;69.99;94849.88;5075024;28;21075;-64
2023/05/28 04:12:23;;;;;;;4.27;3.97;;;16.80;99.90;;;17.02;70.17;94837.41;5077826;28;20454;-63
2023/05/28 04:14:51;;;;;;;7.93;4.30;;;16.70;99.90;;;17.02;70.10;94832.94;5075006;28;20479;-55
2023/05/28 04:17:20;;;;;;;7.13;3.40;;;16.80;99.90;;;17.06;70.39;94841.34;5080775;28;20446;-55
2023/05/28 04:19:48;;;;;;;4.40;4.10;;;16.80;99.90;;;17.08;70.12;94847.31;5072364;28;20471;-55
2023/05/28 04:22:15;;;;;;;7.20;4.83;;;16.80;99.90;;;17.10;70.13;94861.25;5076048;28;20450;-56
2023/05/28 04:24:42;;;;;;;4.63;4.27;;;16.80;99.90;;;17.12;70.48;94855.78;5078499;28;20966;-63
2023/05/28 04:27:10;;;;;;;5.27;4.23;;;16.80;99.90;;;17.14;70.11;94859.06;5073468;28;20567;-56
2023/05/28 04:29:37;;;;;;;5.90;3.70;;;16.90;99.90;;;17.17;70.14;94859.50;5071999;28;20477;-62
2023/05/28 04:32:08;;;;;;;5.83;4.60;;;16.90;99.90;;;17.19;70.06;94851.38;5076188;28;20454;-56
2023/05/28 04:34:40;;;;;;;4.40;4.10;;;16.90;99.90;;;17.19;69.77;94860.16;5071759;28;20470;-64
2023/05/28 04:37:07;;;;;;;5.40;4.60;;;16.90;99.90;;;17.19;70.00;94854.84;5070512;28;20515;-56
2023/05/28 04:39:35;;;;;;;6.77;4.70;;;16.90;99.90;;;17.19;70.29;94849.53;5074012;28;20479;-55
2023/05/28 04:42:03;;;;;;;4.60;4.20;;;16.90;99.90;;;17.23;70.03;94854.47;5073646;28;21022;-63
2023/05/28 04:44:31;;;;;;;13.23;4.47;;;16.90;99.90;;;17.26;70.25;94854.13;5078714;28;20510;-63
2023/05/28 04:46:59;;;;;;;5.10;4.70;;;17.00;99.90;;;17.30;70.28;94858.06;5079737;28;21021;-63
2023/05/28 04:49:26;;;;;;;4.17;3.63;;;17.00;99.90;;;17.35;70.33;94855.69;5078429;28;20475;-64
2023/05/28 04:51:55;;;;;;;4.83;4.40;;;17.10;99.90;;;17.40;70.38;94850.66;5076251;28;20466;-55
2023/05/28 04:54:22;;;;;;;4.70;4.30;;;17.10;99.90;;;17.47;70.33;94856.06;5078764;28;20528;-63
2023/05/28 04:56:49;;;;;;;4.17;3.77;;;17.20;99.90;;;17.48;69.63;94847.09;5080322;28;20532;-56
2023/05/28 04:59:17;;;;;;;4.50;4.13;;;17.20;99.90;;;17.49;69.50;94854.88;5076684;28;20486;-63
2023/05/28 05:01:44;;;;;;;8.53;3.80;;;17.20;99.90;;;17.50;69.65;94855.69;5075908;28;21032;-62
2023/05/28 05:04:12;;;;;;;7.43;4.03;;;17.20;99.90;;;17.51;69.88;94868.81;5078198;28;20484;-64
2023/05/28 05:06:39;;;;;;;4.73;4.37;;;17.20;99.90;;;17.51;69.23;94858.19;5075857;28;20573;-57
2023/05/28 05:09:08;;;;;;;5.43;4.60;;;17.20;99.90;;;17.49;69.53;94864.69;5082437;28;20474;-56
2023/05/28 05:11:35;;;;;;;4.70;4.30;;;17.20;99.90;;;17.50;69.98;94861.84;5076024;28;20447;-63
2023/05/28 05:14:03;;;;;;;4.80;4.30;;;17.20;99.90;;;17.51;69.95;94863.50;5078747;28;20471;-57
2023/05/28 05:16:30;;;;;;;7.67;4.60;;;17.20;99.90;;;17.50;69.71;94861.84;5075658;28;20429;-55
2023/05/28 05:18:58;;;;;;;4.73;4.43;;;17.20;99.90;;;17.49;69.57;94862.88;5082943;28;21192;-64
2023/05/28 05:21:26;;;;;;;12.03;4.90;;;17.20;99.90;;;17.45;69.32;94866.88;5077327;28;20451;-57
2023/05/28 05:23:53;;;;;;;6.30;5.53;;;17.20;99.90;;;17.43;69.41;94860.94;5080631;28;20508;-64
2023/05/28 05:26:21;;;;;;;5.17;4.47;;;17.20;99.90;;;17.39;69.69;94859.63;5077456;28;20493;-56
2023/05/28 05:28:49;;;;;;;5.47;4.90;;;17.10;99.90;;;17.32;70.13;94856.03;5079451;28;20555;-56
2023/05/28 05:31:16;;;;;;;13.33;5.80;;;17.10;99.90;;;17.34;70.11;94851.38;5079428;28;20447;-56
2023/05/28 05:33:43;;;;;;;4.53;4.23;;;17.00;99.90;;;17.38;70.10;94848.19;5079203;28;20467;-64
2023/05/28 05:36:11;;;;;;;8.50;4.87;;;17.10;99.90;;;17.47;70.46;94856.88;5078157;28;20453;-57
2023/05/28 05:38:39;;;;;;;5.83;5.10;;;17.20;99.90;;;17.58;70.46;94860.09;5080710;28;20917;-62
2023/05/28 05:41:06;;;;;;;10.13;6.37;;;17.20;99.90;;;17.66;70.37;94860.00;5076365;28;20467;-62
2023/05/28 05:43:35;;;;;;;7.80;6.17;;;17.40;99.90;;;17.74;69.80;94858.09;5081930;28;20473;-63
2023/05/28 05:46:02;;;;;;;5.77;5.37;;;17.40;99.90;;;17.82;70.04;94861.66;5075763;28;20458;-57
2023/05/28 05:48:29;;;;;;;10.33;6.33;;;17.50;99.90;;;17.86;69.34;94855.78;5077560;28;20873;-63
2023/05/28 05:50:58;;;;;;;40.57;7.57;;;17.60;99.90;;;17.92;69.03;94860.41;5079412;28;20453;-63
2023/05/28 05:53:25;;;;;;;7.00;5.23;;;17.70;99.90;;;17.96;69.45;94860.03;5080626;28;20539;-60
2023/05/28 05:55:52;;;;;;;10.00;5.53;;;17.70;99.90;;;18.01;69.68;94858.44;5073353;28;20528;-65
2023/05/28 05:58:19;;;;;;;10.53;6.00;;;17.70;99.90;;;18.03;69.36;94861.78;5081397;28;20455;-56
2023/05/28 06:00:48;;;;;;;10.13;5.97;;;17.70;99.90;;;18.04;68.85;94858.06;5074768;28;20506;-56
2023/05/28 06:03:16;;;;;;;7.07;5.50;;;17.80;99.90;;;18.06;68.97;94860.56;5078012;28;20450;-64
2023/05/28 06:05:43;;;;;;;7.30;5.20;;;17.80;99.90;;;18.07;69.35;94856.88;5073854;28;20462;-63
2023/05/28 06:08:10;;;;;;;5.80;5.10;;;17.80;99.90;;;18.07;69.16;94856.88;5079404;28;20576;-58
2023/05/28 06:10:38;;;;;;;8.83;6.00;;;17.80;99.90;;;18.07;69.34;94857.69;5073816;28;20451;-63
2023/05/28 06:13:05;;;;;;;7.40;4.80;;;17.80;99.90;;;18.08;69.15;94863.88;5079108;28;20499;-55
2023/05/28 06:15:32;;;;;;;9.60;4.70;;;17.80;99.90;;;18.08;69.64;94869.19;5076174;28;20865;-64
2023/05/28 06:18:01;;;;;;;13.50;4.10;;;17.80;99.90;;;18.08;69.62;94871.84;5078919;28;20518;-56
2023/05/28 06:20:29;;;;;;;8.20;4.53;;;17.80;99.90;;;18.08;69.49;94863.88;5076539;28;20461;-55
2023/05/28 06:22:57;;;;;;;8.30;5.17;;;17.80;99.90;;;18.11;69.91;94868.81;5077611;28;20489;-55
2023/05/28 06:25:24;;;;;;;6.90;5.30;;;17.80;99.90;;;18.13;69.70;94882.75;5077739;28;20574;-56
2023/05/28 06:27:51;;;;;;;12.30;6.90;;;17.80;99.90;;;18.15;69.71;94878.06;5076561;28;20563;-63
2023/05/28 06:30:18;;;;;;;7.00;5.73;;;17.90;99.90;;;18.16;70.20;94874.41;5079756;28;20513;-63
2023/05/28 06:32:46;;;;;;;8.17;5.60;;;17.90;99.90;;;18.17;70.06;94873.41;5076412;28;20459;-56
2023/05/28 06:35:14;;;;;;;9.00;5.50;;;17.90;99.90;;;18.19;70.40;94875.88;5079778;28;20552;-64
2023/05/28 06:37:42;;;;;;;6.87;5.70;;;17.90;99.90;;;18.20;70.12;94881.00;5076383;28;20560;-56
2023/05/28 06:40:10;;;;;;;6.00;5.40;;;17.90;99.90;;;18.22;69.78;94880.81;5079347;28;20516;-64
2023/05/28 06:42:38;;;;;;;5.67;5.27;;;17.90;99.90;;;18.23;70.23;94877.97;5075309;28;20970;-56
2023/05/28 06:45:07;;;;;;;16.70;5.60;;;18.00;99.90;;;18.24;69.90;94876.94;5079361;28;20556;-57
2023/05/28 06:47:34;;;;;;;9.23;6.43;;;18.00;99.90;;;18.26;70.16;94877.59;5077982;28;20490;-64
2023/05/28 06:50:02;;;;;;;8.23;5.83;;;18.00;99.90;;;18.26;70.05;94876.75;5077800;28;20529;-64
2023/05/28 06:52:30;;;;;;;6.57;5.73;;;18.00;99.90;;;18.25;70.18;94877.78;5077962;28;20451;-56
2023/05/28 06:54:58;;;;;;;8.83;6.70;;;18.00;99.90;;;18.27;70.13;94883.75;5078343;28;20543;-56
2023/05/28 06:57:25;;;;;;;7.60;6.00;;;18.00;99.90;;;18.32;70.05;94881.34;5077592;28;20481;-63
2023/05/28 06:59:52;;;;;;;10.63;7.13;;;18.00;99.90;;;18.37;70.11;94878.09;5077530;28;20474;-63
2023/05/28 07:02:19;;;;;;;13.27;6.43;;;18.10;99.90;;;18.46;70.05;94887.63;5076087;28;20450;-56
2023/05/28 07:04:47;;;;;;;7.17;6.43;;;18.10;99.90;;;18.51;70.08;94879.09;5077083;28;21063;-64
2023/05/28 07:07:15;;;;;;;11.63;6.23;;;18.20;99.90;;;18.56;69.42;94885.50;5077320;28;21505;-56
2023/05/28 07:09:44;;;;;;;7.80;6.07;;;18.30;99.90;;;18.59;69.37;94886.94;5080342;28;20965;-57
2023/05/28 07:12:11;;;;;;;13.07;6.30;;;18.30;99.90;;;18.62;69.21;94889.22;5072681;28;20881;-57
2023/05/28 07:14:38;;;;;;;12.50;6.20;;;18.30;99.90;;;18.65;69.49;94875.53;5078612;28;20478;-63
2023/05/28 07:17:06;;;;;;;7.30;6.63;;;18.40;99.90;;;18.73;68.90;94887.91;5074038;28;20451;-56
2023/05/28 07:19:33;;;;;;;7.03;6.33;;;18.40;99.90;;;18.84;69.31;94884.75;5087530;28;20468;-57
2023/05/28 07:22:00;;;;;;;7.27;6.63;;;18.60;99.90;;;18.97;68.80;94884.88;5082768;28;20459;-64
2023/05/28 07:24:27;;;;;;;6.73;5.87;;;18.70;99.90;;;19.09;68.98;94887.06;5091560;28;20481;-64
2023/05/28 07:26:56;;;;;;;7.70;7.00;;;18.70;99.90;;;19.18;68.49;94875.25;5082393;28;20454;-57
2023/05/28 07:29:23;;;;;;;10.17;6.37;;;18.90;99.90;;;19.33;68.51;94883.13;5090494;28;21007;-61
2023/05/28 07:31:50;;;;;;;10.53;6.47;;;19.00;99.90;;;19.51;68.06;94864.78;5081759;28;20481;-64
2023/05/28 07:34:17;;;;;;;6.03;5.47;;;19.20;99.90;;;19.73;67.40;94877.25;5090421;28;20526;-55
2023/05/28 07:36:45;;;;;;;5.63;4.93;;;19.40;99.90;;;19.88;66.87;94875.31;5081689;28;20461;-55
2023/05/28 07:39:13;;;;;;;5.40;4.00;;;19.50;99.90;;;19.96;65.43;94875.13;5089092;28;21018;-56
2023/05/28 07:41:40;;;;;;;4.10;3.80;;;19.60;99.90;;;20.02;65.40;94876.19;5076935;28;20466;-56
2023/05/28 07:44:08;;;;;;;4.93;4.53;;;19.70;99.90;;;20.05;65.27;94876.63;5087949;28;20853;-56
2023/05/28 07:46:37;;;;;;;6.57;4.40;;;19.70;99.90;;;20.09;65.03;94865.53;5086190;28;20875;-64
2023/05/28 07:49:04;;;;;;;5.83;5.43;;;19.80;99.90;;;20.08;64.77;94864.72;5086545;28;20562;-56
2023/05/28 07:51:32;;;;;;;13.63;10.97;;;19.80;99.90;;;20.05;64.44;94865.13;5083172;28;20454;-56
2023/05/28 07:53:59;;;;;;;3.90;3.60;;;19.80;99.90;;;19.99;63.58;94866.72;5074723;28;20477;-57
2023/05/28 07:56:27;;;;;;;5.20;4.70;;;19.70;99.90;;;19.94;64.17;94871.84;5079527;28;20450;-64
2023/05/28 07:58:55;;;;;;;3.63;3.33;;;19.70;99.90;;;19.86;64.11;94864.00;5073545;28;20554;-63
2023/05/28 08:01:24;;;;;;;4.57;3.43;;;19.60;99.90;;;19.73;64.11;94875.38;5079609;28;20915;-54
2023/05/28 08:03:54;;;;;;;3.03;2.83;;;19.50;99.90;;;19.60;64.07;94862.00;5072961;28;20564;-57
2023/05/28 08:06:21;;;;;;;3.83;3.40;;;19.40;99.90;;;19.50;64.18;94873.84;5079927;28;20450;-65
2023/05/28 08:08:48;;;;;;;5.27;3.23;;;19.30;99.90;;;19.43;64.74;94864.13;5073088;28;20495;-56
2023/05/28 08:11:16;;;;;;;8.37;4.30;;;19.20;99.90;;;19.33;64.25;94867.97;5075166;28;20520;-64
2023/05/28 08:13:43;;;;;;;4.13;3.73;;;19.10;99.90;;;19.28;64.82;94865.03;5074791;28;20857;-64
2023/05/28 08:16:12;;;;;;;4.67;3.37;;;19.00;99.90;;;19.22;64.68;94855.16;5077223;28;20454;-55
2023/05/28 08:18:40;;;;;;;3.10;2.90;;;18.90;99.90;;;19.19;64.86;94860.88;5076715;28;20926;-63
2023/05/28 08:21:08;;;;;;;9.17;4.00;;;18.90;99.90;;;19.20;65.18;94873.19;5081620;28;20461;-63
2023/05/28 08:23:35;;;;;;;5.80;3.80;;;18.90;99.90;;;19.22;64.41;94871.16;5079807;28;20549;-63
2023/05/28 08:26:03;;;;;;;13.33;3.60;;;18.90;99.90;;;19.23;64.89;94872.00;5084673;28;20460;-62
2023/05/28 08:28:30;;;;;;;3.37;3.07;;;18.90;99.90;;;19.23;64.54;94864.81;5078700;28;20572;-63
2023/05/28 08:30:57;;;;;;;4.47;4.07;;;18.90;99.90;;;19.26;64.70;94867.09;5083383;28;20449;-66
2023/05/28 08:33:25;;;;;;;8.93;5.73;;;18.90;99.90;;;19.32;64.46;94868.16;5077052;28;20478;-57
2023/05/28 08:35:53;;;;;;;4.90;4.20;;;19.00;99.90;;;19.38;64.88;94863.88;5082558;28;20865;-64
2023/05/28 08:38:21;;;;;;;3.83;3.50;;;19.10;99.90;;;19.43;64.51;94864.94;5078509;28;20563;-56
2023/05/28 08:40:53;;;;;;;5.43;3.33;;;19.10;99.90;;;19.43;64.45;94864.13;5079922;28;20453;-56
2023/05/28 08:43:20;;;;;;;4.00;3.27;;;19.10;99.90;;;19.39;64.63;94866.34;5075577;28;20879;-55
2023/05/28 08:45:47;;;;;;;4.20;3.10;;;19.10;99.90;;;19.34;64.39;94871.44;5079093;28;20459;-57
2023/05/28 08:48:15;;;;;;;3.13;2.93;;;19.10;99.90;;;19.28;64.81;94877.56;5080101;28;21029;-55
2023/05/28 08:50:43;;;;;;;7.97;4.00;;;19.00;99.90;;;19.16;64.60;94872.75;5088603;28;20442;-64
2023/05/28 08:53:16;;;;;;;5.00;4.03;;;18.90;99.90;;;19.10;64.64;94886.03;5080469;28;20541;-56
2023/05/28 08:55:45;;;;;;;3.90;3.60;;;18.90;99.90;;;19.08;64.82;94882.72;5078102;28;20450;-64
2023/05/28 08:58:12;;;;;;;3.83;3.57;;;18.80;99.90;;;19.12;64.93;94878.69;5081112;28;20514;-56
2023/05/28 09:00:40;;;;;;;4.10;3.70;;;18.90;99.90;;;19.21;65.54;94874.84;5077428;28;20507;-63
2023/05/28 09:03:08;;;;;;;6.37;4.50;;;18.90;99.90;;;19.38;65.27;94871.88;5081139;28;20501;-63
2023/05/28 09:05:37;;;;;;;3.80;2.57;;;19.10;99.90;;;19.65;63.99;94876.38;5076286;28;20876;-63
2023/05/28 09:08:07;;;;;;;3.70;3.00;;;19.30;99.90;;;19.94;63.64;94863.84;5080098;28;20532;-64
2023/05/28 09:10:35;;;;;;;4.13;2.80;;;19.50;99.90;;;20.16;63.23;94869.06;5076558;28;20538;-64
2023/05/28 09:13:04;;;;;;;3.60;3.30;;;19.80;99.90;;;20.32;62.86;94865.22;5079235;28;20504;-55
2023/05/28 09:15:31;;;;;;;4.07;3.53;;;19.90;99.90;;;20.44;62.08;94868.16;5078229;28;20451;-57
2023/05/28 09:18:00;;;;;;;4.83;3.40;;;20.10;99.90;;;20.53;62.35;94862.41;5083975;28;20479;-56
2023/05/28 09:20:27;;;;;;;3.00;2.80;;;20.10;99.90;;;20.57;62.05;94860.16;5080779;28;20907;-64
2023/05/28 09:23:01;;;;;;;3.30;3.10;;;20.20;99.90;;;20.56;61.41;94867.34;5079673;28;20450;-63
2023/05/28 09:25:31;;;;;;;3.80;3.07;;;20.30;99.90;;;20.52;61.65;94865.28;5080232;28;20540;-57
2023/05/28 09:28:03;;;;;;;9.67;2.80;;;20.20;99.90;;;20.46;61.86;94863.41;5077809;28;20605;-65
2023/05/28 09:30:35;;;;;;;7.40;4.00;;;20.20;99.90;;;20.42;62.15;94863.81;5080278;28;20466;-64
2023/05/28 09:33:03;;;;;;;3.07;2.77;;;20.10;99.90;;;20.48;62.07;94864.03;5078995;28;20516;-57
2023/05/28 09:35:30;;;;;;;4.13;3.53;;;20.10;99.90;;;20.58;62.08;94867.16;5079454;28;20529;-56
2023/05/28 09:38:02;;;;;;;3.70;3.10;;;20.20;99.90;;;20.63;61.81;94864.69;5079685;28;20450;-57
2023/05/28 09:40:29;;;;;;;6.87;3.30;;;20.30;99.90;;;20.60;61.44;94865.09;5078213;28;20459;-63
2023/05/28 09:42:57;;;;;;;2.97;2.80;;;20.30;99.90;;;20.55;61.37;94870.22;5078340;28;20458;-56
2023/05/28 09:45:27;;;;;;;6.83;2.73;;;20.20;99.90;;;20.50;61.62;94867.34;5077134;28;20470;-56
2023/05/28 09:47:55;;;;;;;3.23;3.00;;;20.20;99.90;;;20.46;61.40;94866.09;5078078;28;20544;-56
2023/05/28 09:50:22;;;;;;;4.20;3.80;;;20.20;99.90;;;20.41;61.70;94867.50;5082235;28;20466;-65
2023/05/28 09:52:50;;;;;;;7.33;3.67;;;20.10;99.90;;;20.37;61.15;94876.97;5075730;28;20512;-63
2023/05/28 09:55:18;;;;;;;4.80;3.47;;;20.10;99.90;;;20.35;61.60;94870.16;5079093;28;20534;-63
2023/05/28 09:57:47;;;;;;;3.57;3.27;;;20.00;99.90;;;20.37;61.65;94870.78;5076595;28;20751;-56
2023/05/28 10:00:22;;;;;;;2.97;2.77;;;20.10;99.90;;;20.47;60.74;94870.41;5077921;28;21035;-65
2023/05/28 10:02:58;;;;;;;3.20;2.90;;;20.10;99.90;;;20.62;60.90;94873.75;5078585;28;20478;-56
2023/05/28 10:05:27;;;;;;;2.37;2.17;;;20.20;99.90;;;20.80;60.17;94865.16;5074673;28;20551;-63
2023/05/28 10:07:54;;;;;;;6.30;2.50;;;20.40;99.90;;;21.04;59.99;94871.78;5078780;28;20509;-56
2023/05/28 10:10:22;;;;;;;13.77;3.23;;;20.60;99.90;;;21.34;59.81;94867.88;5079112;28;20986;-56
2023/05/28 10:12:50;;;;;;;3.13;2.93;;;20.90;99.90;;;21.66;59.71;94871.56;5073375;28;20450;-63
2023/05/28 10:15:18;;;;;;;3.20;3.00;;;21.20;99.90;;;21.93;58.50;94866.16;5078050;28;20505;-64
2023/05/28 10:17:45;;;;;;;3.47;3.20;;;21.50;99.90;;;21.96;57.90;94855.00;5078271;28;20454;-64
2023/05/28 10:20:14;;;;;;;2.87;2.30;;;21.60;99.30;;;21.94;57.22;94859.75;5077126;28;20521;-65